»·PEaware :: N365EA KLAX-KSAN

N365EA :: KLAX-KSAN

FLIGHT INFORMATION

Flight Status: Arrived
Operator: Privately registered:
United States
More flights under this callsign
Pilot: Anonymous 24416 (24416)
Aircraft: CESSNA 550 CITATION 2/S2/BRAVO
(C550)
More flights by this aircraft type
Origin: KLAX Los Angeles Intl
United States
Destination: KSAN San Diego Intl-Lindbergh
United States
More flights between these airports :: More routes between these airports
Route: +
File this flight plan on PilotEdge
Remarks:
Altitude:
(Current/Filed)
3,500ft
Speed:
(Current/Filed)
0kts
Departed: 06-Jan-20 06:02 PM
Arrived: 06-Jan-20 06:40 PM
Distance/Time
Traveled:
95nm/0:38
Distance/Time
To Go:
Arrived

Flight Plot

Page will automatically refresh every two minutes.


Map Options




Map Legend


Flown Route
Filed Route
Departure Airport
Arrival Airport
Navaid (VOR, NDB)
Fix

Horizontal Profiles

Position Reports

Time Latitude Longitude Heading Altitude Ground
Speed
06-Jan-20 17:46 33.933089 -118.403368 350 116ft 0kts
06-Jan-20 17:47 33.933089 -118.403368 350 116ft 0kts
06-Jan-20 17:48 33.933089 -118.403368 350 116ft 0kts
06-Jan-20 17:49 33.933089 -118.403368 350 116ft 0kts
06-Jan-20 17:50 33.933089 -118.403368 350 116ft 0kts
06-Jan-20 17:51 33.933089 -118.403368 350 116ft 0kts
06-Jan-20 17:52 33.934064 -118.402909 82 116ft 9kts
06-Jan-20 17:53 33.934435 -118.399281 83 112ft 9kts
06-Jan-20 17:54 33.934717 -118.396548 83 107ft 16kts
06-Jan-20 17:55 33.935299 -118.390894 83 103ft 12kts
06-Jan-20 17:55 33.935719 -118.386765 83 100ft 16kts
06-Jan-20 17:57 33.936215 -118.382975 46 97ft 3kts
06-Jan-20 17:58 33.936390 -118.382844 18 97ft 0kts
06-Jan-20 17:58 33.936390 -118.382844 18 97ft 0kts
06-Jan-20 18:00 33.936390 -118.382844 18 97ft 0kts
06-Jan-20 18:01 33.937291 -118.383441 262 97ft 10kts
06-Jan-20 18:01 33.934831 -118.408260 265 512ft 138kts
06-Jan-20 18:03 33.931988 -118.475815 267 1695ft 179kts
06-Jan-20 18:03 33.916304 -118.511604 179 2515ft 156kts
06-Jan-20 18:04 33.870032 -118.504851 172 3019ft 184kts
06-Jan-20 18:06 33.806692 -118.494427 172 3016ft 200kts
06-Jan-20 18:06 33.766661 -118.472537 137 3018ft 196kts
06-Jan-20 18:07 33.744629 -118.415291 115 3020ft 194kts
06-Jan-20 18:08 33.721332 -118.358686 116 3025ft 180kts
06-Jan-20 18:09 33.699285 -118.306481 117 3027ft 175kts
06-Jan-20 18:10 33.675821 -118.252558 116 3023ft 187kts
06-Jan-20 18:11 33.651732 -118.197266 115 3016ft 180kts
06-Jan-20 18:12 33.629767 -118.146907 114 3343ft 162kts
06-Jan-20 18:13 33.607938 -118.096828 114 3512ft 175kts
06-Jan-20 18:14 33.575061 -118.051948 135 3507ft 185kts
06-Jan-20 18:15 33.536078 -118.010707 136 3504ft 187kts
06-Jan-20 18:16 33.495634 -117.968060 136 3505ft 215kts
06-Jan-20 18:17 33.446376 -117.916265 137 3501ft 248kts
06-Jan-20 18:18 33.395415 -117.862763 137 3499ft 239kts
06-Jan-20 18:19 33.345759 -117.810658 138 3494ft 236kts
06-Jan-20 18:20 33.296532 -117.759122 138 3491ft 235kts
06-Jan-20 18:21 33.247528 -117.707934 138 3488ft 225kts
06-Jan-20 18:22 33.204804 -117.663328 137 3490ft 197kts
06-Jan-20 18:23 33.196823 -117.600419 90 3492ft 204kts
06-Jan-20 18:24 33.197282 -117.525688 88 3491ft 239kts
06-Jan-20 18:25 33.192944 -117.449678 125 3488ft 228kts
06-Jan-20 18:26 33.150432 -117.394501 131 3488ft 222kts
06-Jan-20 18:27 33.109057 -117.348596 146 3487ft 183kts
06-Jan-20 18:28 33.063568 -117.326401 156 3493ft 180kts
06-Jan-20 18:29 33.015688 -117.303754 156 3493ft 189kts
06-Jan-20 18:30 32.964205 -117.288823 168 3493ft 192kts
06-Jan-20 18:31 32.912561 -117.272386 162 3491ft 193kts
06-Jan-20 18:32 32.860867 -117.251459 162 3458ft 200kts
06-Jan-20 18:33 32.810953 -117.232868 163 2981ft 163kts
06-Jan-20 18:34 32.775396 -117.219213 152 2416ft 110kts
06-Jan-20 18:35 32.762064 -117.190259 94 1816ft 103kts
06-Jan-20 18:36 32.756780 -117.155062 116 1503ft 108kts
06-Jan-20 18:37 32.732591 -117.147306 228 1071ft 101kts
06-Jan-20 18:38 32.730345 -117.176650 288 128ft 86kts
06-Jan-20 18:39 32.735185 -117.196412 286 15ft 23kts
06-Jan-20 18:40 32.734761 -117.198344 161 15ft 0kts
06-Jan-20 18:41 32.734759 -117.198343 161 15ft 0kts
06-Jan-20 18:42 32.734132 -117.196293 106 15ft 10kts
06-Jan-20 18:43 32.733151 -117.192255 106 18ft 10kts
06-Jan-20 18:44 32.734839 -117.190202 98 18ft 6kts

Navigation Log

Ident Type
Flight plan parsing failed, navigation log unavailable